Ce-hamilton — D5LD6 — position and weather

sailwx.info

Track history (hours):
 
Tides and Currents Weather Stations Pressure Air Temp Water Temp Dewpoint Dewpoint Depression Visibility Wind Speed Wind Dir Waves Ship Positions

Ce-hamilton

Last reported at 2018-Feb-21 08:59 UTC. Time now 2018-Feb-21 09:29 UTC.
Position N 40°46' E 029°03'.

Length 274 m; draft 9.2 m.

Type: Tanker. MMSI: 636017477.

Date/timePositionNaut miles runAvg speedWind from/ knotsBaromVisibWave heightAir tempDewpointWater temp
2018-Feb-21 08:59N 40°46' E 029°03'0 0.5
2018-Feb-21 08:28N 40°46' E 029°03'6 1.0
2018-Feb-21 01:41N 40°48' E 028°56'3 5.5
2018-Feb-21 01:14N 40°50' E 028°58'1 3.5
2018-Feb-21 00:57N 40°50' E 028°59'1 1.2
2018-Feb-21 00:29N 40°50' E 028°59'0 1.0
2018-Feb-21 00:00N 40°49' E 028°60'0 0.6
2018-Feb-20 23:22N 40°49' E 029°00'1 2.8
2018-Feb-20 22:59N 40°48' E 029°00'3 1.4
2018-Feb-20 20:58N 40°46' E 028°58'0 0.4
2018-Feb-20 20:23N 40°46' E 028°58'  
2018-Feb-15 23:37N 37°48' E 024°26'7 9.1
2018-Feb-15 22:51N 37°44' E 024°19'10 8.2
2018-Feb-15 21:35N 37°36' E 024°11'2 8.1
2018-Feb-15 21:19N 37°35' E 024°09'4 9.0
2018-Feb-15 20:53N 37°35' E 024°04'5 9.4
2018-Feb-15 20:19N 37°35' E 023°57'3 9.5
2018-Feb-15 20:00N 37°35' E 023°53'5 9.3
2018-Feb-15 19:30N 37°35' E 023°47'4 7.2
2018-Feb-15 19:00N 37°37' E 023°43'5 9.8
2018-Feb-15 18:30N 37°41' E 023°41'5 9.1
2018-Feb-15 18:00N 37°46' E 023°39'4 7.8
2018-Feb-15 17:30N 37°49' E 023°37'4 7.0
2018-Feb-15 17:00N 37°51' E 023°33'1 1.6
2018-Feb-15 16:30N 37°51' E 023°32'0 0.1
2018-Feb-15 16:00N 37°51' E 023°32'0 0.1
2018-Feb-15 15:30N 37°51' E 023°32'0 0.1
2018-Feb-15 15:00N 37°51' E 023°32'0 0.0
2018-Feb-15 14:30N 37°51' E 023°32'0 0.1
2018-Feb-15 14:00N 37°51' E 023°32'0 0.1
2018-Feb-15 13:30N 37°51' E 023°32'0 0.3
2018-Feb-15 13:00N 37°51' E 023°32'0 0.1
2018-Feb-15 12:30N 37°51' E 023°32'0 0.1
2018-Feb-15 12:00N 37°51' E 023°32'0 0.0
2018-Feb-15 11:30N 37°51' E 023°32'0 0.1
2018-Feb-15 11:00N 37°51' E 023°32'0 0.0
2018-Feb-15 10:30N 37°51' E 023°32'0 0.0
2018-Feb-15 10:00N 37°51' E 023°32'0 0.1
2018-Feb-15 09:30N 37°51' E 023°32'0 0.0
2018-Feb-15 09:00N 37°51' E 023°32'0 0.6
2018-Feb-15 08:30N 37°51' E 023°32'0 0.1
2018-Feb-15 08:00N 37°51' E 023°32'0 0.1
2018-Feb-15 07:30N 37°51' E 023°32'0 0.3
2018-Feb-15 07:00N 37°51' E 023°32'0 0.2
2018-Feb-15 06:30N 37°51' E 023°32'0 0.0
2018-Feb-15 06:00N 37°51' E 023°32'0 0.2
2018-Feb-15 05:30N 37°51' E 023°32'0 0.7
2018-Feb-15 05:01N 37°51' E 023°32'1 2.3
2018-Feb-15 04:31N 37°50' E 023°33'3 5.3
2018-Feb-15 04:00N 37°50' E 023°36'4 7.6
2018-Feb-15 03:30N 37°48' E 023°40'612.7
2018-Feb-15 03:01N 37°43' E 023°44'612.6
2018-Feb-15 02:30N 37°36' E 023°47'812.7
2018-Feb-15 01:51N 37°28' E 023°45'513.2
2018-Feb-15 01:31N 37°24' E 023°44'713.2
2018-Feb-15 01:00N 37°18' E 023°41'36110.2
2018-Feb-13 13:42N 37°42' E 016°08'211.1
2018-Feb-13 13:29N 37°43' E 016°05'711.2
2018-Feb-13 12:50N 37°46' E 015°56'411.0
2018-Feb-13 12:26N 37°47' E 015°51'610.8
2018-Feb-13 11:52N 37°49' E 015°44'511.2
2018-Feb-13 11:25N 37°53' E 015°39'510.9
2018-Feb-13 11:00N 37°56' E 015°35'510.6
2018-Feb-13 10:30N 38°02' E 015°33'611.7
2018-Feb-13 10:00N 38°07' E 015°35'611.5
2018-Feb-13 09:30N 38°13' E 015°36'612.3
2018-Feb-13 09:00N 38°18' E 015°41'4 8.7
2018-Feb-13 08:30N 38°22' E 015°41'4 8.8
2018-Feb-13 08:00N 38°26' E 015°42'510.4
2018-Feb-13 07:29N 38°31' E 015°39'510.5
2018-Feb-13 07:00N 38°36' E 015°37'510.3
2018-Feb-13 06:30N 38°41' E 015°35'510.0
2018-Feb-13 06:00N 38°46' E 015°34'5 9.9
2018-Feb-13 05:29N 38°51' E 015°32'8 9.6
2018-Feb-13 04:36N 38°59' E 015°28'3210.5
2018-Feb-13 01:35N 39°18' E 014°56'110.5
2018-Feb-13 01:30N 39°19' E 014°55'510.1
2018-Feb-13 01:00N 39°22' E 014°50'311 9.5
2018-Feb-11 16:11N 43°06' E 010°02'2 9.7
2018-Feb-11 16:01N 43°07' E 010°03'5 9.7
2018-Feb-11 15:30N 43°12' E 010°04'5 9.9
2018-Feb-11 15:01N 43°17' E 010°06'5 9.7
2018-Feb-11 14:31N 43°21' E 010°08'5 9.9
2018-Feb-11 14:00N 43°26' E 010°09'5 9.6
2018-Feb-11 13:31N 43°30' E 010°12'4 8.1
2018-Feb-11 13:00N 43°32' E 010°17'1 2.3
2018-Feb-11 12:28N 43°34' E 010°18'0 0.0
2018-Feb-11 11:58N 43°34' E 010°18'0 0.0
2018-Feb-11 11:28N 43°34' E 010°18'0 0.0
2018-Feb-11 10:58N 43°34' E 010°18'0 0.0
2018-Feb-11 10:28N 43°34' E 010°18'0 0.0
2018-Feb-11 09:58N 43°34' E 010°18'0 0.0
2018-Feb-11 09:28N 43°34' E 010°18'  
Track history (hours):
 
Tides and Currents Weather Stations Pressure Air Temp Water Temp Dewpoint Dewpoint Depression Visibility Wind Speed Wind Dir Waves Ship Positions

Ce-hamilton

Last reported at 2018-Feb-21 08:59 UTC. Time now 2018-Feb-21 09:29 UTC.
Position N 40°46' E 029°03'.

Length 274 m; draft 9.2 m.

Type: Tanker. MMSI: 636017477.

Date/timePositionNaut miles runAvg speedWind from/ knotsBaromVisibWave heightAir tempDewpointWater temp
2018-Feb-21 08:59N 40°46' E 029°03'0 0.5
2018-Feb-21 08:28N 40°46' E 029°03'6 1.0
2018-Feb-21 01:41N 40°48' E 028°56'3 5.5
2018-Feb-21 01:14N 40°50' E 028°58'1 3.5
2018-Feb-21 00:57N 40°50' E 028°59'1 1.2
2018-Feb-21 00:29N 40°50' E 028°59'0 1.0
2018-Feb-21 00:00N 40°49' E 028°60'0 0.6
2018-Feb-20 23:22N 40°49' E 029°00'1 2.8
2018-Feb-20 22:59N 40°48' E 029°00'3 1.4
2018-Feb-20 20:58N 40°46' E 028°58'0 0.4
2018-Feb-20 20:23N 40°46' E 028°58'  
2018-Feb-15 23:37N 37°48' E 024°26'7 9.1
2018-Feb-15 22:51N 37°44' E 024°19'10 8.2
2018-Feb-15 21:35N 37°36' E 024°11'2 8.1
2018-Feb-15 21:19N 37°35' E 024°09'4 9.0
2018-Feb-15 20:53N 37°35' E 024°04'5 9.4
2018-Feb-15 20:19N 37°35' E 023°57'3 9.5
2018-Feb-15 20:00N 37°35' E 023°53'5 9.3
2018-Feb-15 19:30N 37°35' E 023°47'4 7.2
2018-Feb-15 19:00N 37°37' E 023°43'5 9.8
2018-Feb-15 18:30N 37°41' E 023°41'5 9.1
2018-Feb-15 18:00N 37°46' E 023°39'4 7.8
2018-Feb-15 17:30N 37°49' E 023°37'4 7.0
2018-Feb-15 17:00N 37°51' E 023°33'1 1.6
2018-Feb-15 16:30N 37°51' E 023°32'0 0.1
2018-Feb-15 16:00N 37°51' E 023°32'0 0.1
2018-Feb-15 15:30N 37°51' E 023°32'0 0.1
2018-Feb-15 15:00N 37°51' E 023°32'0 0.0
2018-Feb-15 14:30N 37°51' E 023°32'0 0.1
2018-Feb-15 14:00N 37°51' E 023°32'0 0.1
2018-Feb-15 13:30N 37°51' E 023°32'0 0.3
2018-Feb-15 13:00N 37°51' E 023°32'0 0.1
2018-Feb-15 12:30N 37°51' E 023°32'0 0.1
2018-Feb-15 12:00N 37°51' E 023°32'0 0.0
2018-Feb-15 11:30N 37°51' E 023°32'0 0.1
2018-Feb-15 11:00N 37°51' E 023°32'0 0.0
2018-Feb-15 10:30N 37°51' E 023°32'0 0.0
2018-Feb-15 10:00N 37°51' E 023°32'0 0.1
2018-Feb-15 09:30N 37°51' E 023°32'0 0.0
2018-Feb-15 09:00N 37°51' E 023°32'0 0.6
2018-Feb-15 08:30N 37°51' E 023°32'0 0.1
2018-Feb-15 08:00N 37°51' E 023°32'0 0.1
2018-Feb-15 07:30N 37°51' E 023°32'0 0.3
2018-Feb-15 07:00N 37°51' E 023°32'0 0.2
2018-Feb-15 06:30N 37°51' E 023°32'0 0.0
2018-Feb-15 06:00N 37°51' E 023°32'0 0.2
2018-Feb-15 05:30N 37°51' E 023°32'0 0.7
2018-Feb-15 05:01N 37°51' E 023°32'1 2.3
2018-Feb-15 04:31N 37°50' E 023°33'3 5.3
2018-Feb-15 04:00N 37°50' E 023°36'4 7.6
2018-Feb-15 03:30N 37°48' E 023°40'612.7
2018-Feb-15 03:01N 37°43' E 023°44'612.6
2018-Feb-15 02:30N 37°36' E 023°47'812.7
2018-Feb-15 01:51N 37°28' E 023°45'513.2
2018-Feb-15 01:31N 37°24' E 023°44'713.2
2018-Feb-15 01:00N 37°18' E 023°41'36110.2
2018-Feb-13 13:42N 37°42' E 016°08'211.1
2018-Feb-13 13:29N 37°43' E 016°05'711.2
2018-Feb-13 12:50N 37°46' E 015°56'411.0
2018-Feb-13 12:26N 37°47' E 015°51'610.8
2018-Feb-13 11:52N 37°49' E 015°44'511.2
2018-Feb-13 11:25N 37°53' E 015°39'510.9
2018-Feb-13 11:00N 37°56' E 015°35'510.6
2018-Feb-13 10:30N 38°02' E 015°33'611.7
2018-Feb-13 10:00N 38°07' E 015°35'611.5
2018-Feb-13 09:30N 38°13' E 015°36'612.3
2018-Feb-13 09:00N 38°18' E 015°41'4 8.7
2018-Feb-13 08:30N 38°22' E 015°41'4 8.8
2018-Feb-13 08:00N 38°26' E 015°42'510.4
2018-Feb-13 07:29N 38°31' E 015°39'510.5
2018-Feb-13 07:00N 38°36' E 015°37'510.3
2018-Feb-13 06:30N 38°41' E 015°35'510.0
2018-Feb-13 06:00N 38°46' E 015°34'5 9.9
2018-Feb-13 05:29N 38°51' E 015°32'8 9.6
2018-Feb-13 04:36N 38°59' E 015°28'3210.5
2018-Feb-13 01:35N 39°18' E 014°56'110.5
2018-Feb-13 01:30N 39°19' E 014°55'510.1
2018-Feb-13 01:00N 39°22' E 014°50'311 9.5
2018-Feb-11 16:11N 43°06' E 010°02'2 9.7
2018-Feb-11 16:01N 43°07' E 010°03'5 9.7
2018-Feb-11 15:30N 43°12' E 010°04'5 9.9
2018-Feb-11 15:01N 43°17' E 010°06'5 9.7
2018-Feb-11 14:31N 43°21' E 010°08'5 9.9
2018-Feb-11 14:00N 43°26' E 010°09'5 9.6
2018-Feb-11 13:31N 43°30' E 010°12'4 8.1
2018-Feb-11 13:00N 43°32' E 010°17'1 2.3
2018-Feb-11 12:28N 43°34' E 010°18'0 0.0
2018-Feb-11 11:58N 43°34' E 010°18'0 0.0
2018-Feb-11 11:28N 43°34' E 010°18'0 0.0
2018-Feb-11 10:58N 43°34' E 010°18'0 0.0
2018-Feb-11 10:28N 43°34' E 010°18'0 0.0
2018-Feb-11 09:58N 43°34' E 010°18'0 0.0
2018-Feb-11 09:28N 43°34' E 010°18'  

Dump ship's entire track history